Date,TemperatureHighF,TemperatureAvgF,TemperatureLowF,DewpointHighF,DewpointAvgF,DewpointLowF,HumidityHigh,HumidityAvg,HumidityLow,PressureMaxIn,PressureMinIn,WindSpeedMaxMPH,WindSpeedAvgMPH,GustSpeedMaxMPH,PrecipitationSumIn
2013-7-1,67.6,56.5,52.0,62.3,55.8,51.7,99,98,81,29.92,29.85,6,2,6,0.21
2013-7-2,72.5,55.0,49.6,60.1,52.5,49.4,99,92,61,29.92,26.84,4,1,6,0.01
2013-7-3,74.8,58.4,46.6,58.5,53.0,46.3,99,85,53,29.94,29.84,7,1,7,0.01
2013-7-4,73.9,54.4,44.1,57.5,49.3,43.8,99,85,53,29.81,29.59,23,4,23,0.01
2013-7-5,74.7,62.8,54.3,54.1,49.3,35.4,95,65,38,29.72,29.52,14,4,14,0.00
2013-7-6,66.4,54.4,42.8,44.2,38.5,32.7,80,56,41,29.89,29.74,11,4,11,0.00
2013-7-7,72.1,58.6,42.4,48.4,41.7,36.0,84,56,32,30.06,29.92,7,2,7,0.00
2013-7-8,72.5,55.6,43.7,48.6,43.5,39.1,90,66,38,30.16,30.07,6,1,6,0.00
2013-7-9,60.6,51.5,47.1,58.4,50.6,42.6,99,97,80,30.24,30.13,4,1,4,0.43
2013-7-10,64.6,53.6,48.4,58.8,52.1,47.9,99,95,76,30.22,30.13,4,1,4,0.01
2013-7-11,73.8,56.2,44.8,62.3,51.9,44.5,99,87,57,30.24,30.16,4,1,4,0.00
2013-7-12,64.6,53.3,48.2,58.9,51.9,47.9,99,95,75,30.11,29.92,3,1,3,0.02
2013-7-13,75.6,57.3,46.6,62.2,53.4,46.3,99,89,56,29.96,29.88,4,1,4,0.01
2013-7-14,76.5,63.1,46.0,65.0,54.9,45.6,99,78,48,29.93,29.84,4,1,4,0.00
2013-7-15,68.0,58.6,52.9,61.3,56.8,52.6,99,94,77,29.85,29.77,4,1,4,0.00
2013-7-16,76.8,59.2,54.1,62.8,56.7,53.7,99,92,56,29.85,29.78,8,2,8,0.00
2013-7-17,81.5,64.0,52.9,63.3,57.5,52.6,99,82,48,29.83,29.74,7,2,7,0.00
2013-7-18,83.7,62.1,49.8,64.2,57.7,49.6,99,88,49,29.80,29.66,7,2,7,0.00
2013-7-19,74.7,60.8,54.1,62.0,58.0,53.7,99,91,62,29.65,29.49,13,2,13,0.04
2013-7-20,73.2,59.3,55.6,59.9,55.5,40.5,99,89,49,29.47,29.29,14,3,14,0.00
2013-7-21,65.3,53.6,44.8,42.8,40.0,34.9,87,62,36,29.64,29.49,13,4,13,0.00
2013-7-22,65.8,56.5,43.0,43.1,38.5,35.6,80,52,37,29.70,29.61,16,4,16,0.00
2013-7-23,67.3,54.2,44.8,45.9,41.0,36.0,80,62,42,29.74,29.63,11,4,11,0.00
2013-7-24,65.7,56.2,51.4,51.5,46.3,41.8,78,69,59,29.92,29.75,12,4,12,0.00
2013-7-25,74.8,58.0,48.9,52.3,47.9,43.8,87,71,39,29.98,29.89,4,1,4,0.00
2013-7-26,71.8,56.1,44.2,49.7,45.8,39.9,99,72,40,29.91,29.80,11,3,11,0.00
2013-7-27,78.3,58.5,45.1,56.4,50.5,42.2,99,78,46,30.01,29.89,4,1,4,0.00
2013-7-28,73.0,55.4,41.0,58.7,51.5,40.7,99,88,57,29.99,29.86,7,2,7,0.01
2013-7-29,79.9,55.0,47.3,59.3,51.4,47.0,99,90,41,29.88,29.73,7,2,8,0.00
2013-7-30,77.2,62.3,48.0,57.8,52.9,47.8,99,74,42,29.70,29.62,7,2,7,0.00
2013-7-31,68.7,58.8,54.0,60.5,54.0,51.4,99,85,65,29.79,29.69,16,3,16,0.50